Time;durP1;ratioP1;P1;durP2;ratioP2;P2;SDS_P1;SDS_P2;PMS_P1;PMS_P2;Temp;Humidity;BMP_temperature;BMP_pressure;BME280_temperature;BME280_humidity;BME280_pressure;Samples;Min_cycle;Max_cycle;Signal;HPM_P1;HPM_P2
2023/10/23 00:02:27;;;;;;;;;;;17.60;64.60;;;;;;10242037;28;94338;-71
2023/10/23 00:07:29;;;;;;;;;;;17.60;63.70;;;;;;10228471;28;93456;-70
2023/10/23 00:12:30;;;;;;;;;;;17.60;63.20;;;;;;10227273;28;95869;-70
2023/10/23 00:17:32;;;;;;;;;;;17.60;62.70;;;;;;10223898;28;94877;-71
2023/10/23 00:22:34;;;;;;;;;;;17.60;62.30;;;;;;10236837;28;93481;-71
2023/10/23 00:27:36;;;;;;;;;;;17.60;61.90;;;;;;10229525;28;94427;-71
2023/10/23 00:32:38;;;;;;;;;;;17.60;61.60;;;;;;10240461;28;93829;-71
2023/10/23 00:37:40;;;;;;;;;;;17.60;61.30;;;;;;10237953;28;93835;-70
2023/10/23 00:42:42;;;;;;;;;;;17.60;61.40;;;;;;10228389;28;94703;-71
2023/10/23 00:47:44;;;;;;;;;;;17.50;61.70;;;;;;10210618;28;92340;-70
2023/10/23 00:52:46;;;;;;;;;;;17.50;62.00;;;;;;10236668;28;94608;-71
2023/10/23 00:57:48;;;;;;;;;;;17.50;61.80;;;;;;10224720;28;93359;-71
2023/10/23 01:02:50;;;;;;;;;;;17.50;61.50;;;;;;10616203;23;96897;-47
2023/10/23 01:07:52;;;;;;;;;;;17.50;61.10;;;;;;10197556;28;94402;-45
2023/10/23 01:12:54;;;;;;;;;;;17.50;60.90;;;;;;10193625;28;93218;-44
2023/10/23 01:17:56;;;;;;;;;;;17.50;60.60;;;;;;10180785;28;93835;-45
2023/10/23 01:22:59;;;;;;;;;;;17.50;60.30;;;;;;10181743;28;93580;-44
2023/10/23 01:28:01;;;;;;;;;;;17.50;60.10;;;;;;10216367;28;93601;-44
2023/10/23 01:33:02;;;;;;;;;;;17.50;59.90;;;;;;10196323;28;94631;-45
2023/10/23 01:38:04;;;;;;;;;;;17.50;60.10;;;;;;10206255;28;94231;-48
2023/10/23 01:43:06;;;;;;;;;;;17.50;60.50;;;;;;10199097;28;94448;-46
2023/10/23 01:48:08;;;;;;;;;;;17.40;61.00;;;;;;10204433;28;93484;-44
2023/10/23 01:53:10;;;;;;;;;;;17.40;60.70;;;;;;10214708;28;95910;-47
2023/10/23 01:58:12;;;;;;;;;;;17.50;60.40;;;;;;10219141;28;94570;-45
2023/10/23 02:03:14;;;;;;;;;;;17.40;60.10;;;;;;10213416;28;94476;-46
2023/10/23 02:08:16;;;;;;;;;;;17.40;59.90;;;;;;10200025;28;93684;-44
2023/10/23 02:13:19;;;;;;;;;;;17.40;59.60;;;;;;10170223;28;95053;-44
2023/10/23 02:18:21;;;;;;;;;;;17.40;59.40;;;;;;10188478;28;94334;-43
2023/10/23 02:23:23;;;;;;;;;;;17.40;59.30;;;;;;10193338;28;95063;-44
2023/10/23 02:28:24;;;;;;;;;;;17.40;59.00;;;;;;10202265;28;94279;-46
2023/10/23 02:33:26;;;;;;;;;;;17.40;59.40;;;;;;10183401;28;94347;-50
2023/10/23 02:38:28;;;;;;;;;;;17.40;59.90;;;;;;10215635;28;94485;-47
2023/10/23 02:43:30;;;;;;;;;;;17.30;60.20;;;;;;10199591;28;96470;-47
2023/10/23 02:48:31;;;;;;;;;;;17.40;60.00;;;;;;10199852;28;94417;-47
2023/10/23 02:53:34;;;;;;;;;;;17.40;59.70;;;;;;10218241;28;95779;-50
2023/10/23 02:58:35;;;;;;;;;;;17.40;59.40;;;;;;10206620;28;93401;-43
2023/10/23 03:03:37;;;;;;;;;;;17.40;59.20;;;;;;10200261;28;93145;-46
2023/10/23 03:08:39;;;;;;;;;;;17.40;59.00;;;;;;10201947;28;93865;-46
2023/10/23 03:13:41;;;;;;;;;;;17.40;58.80;;;;;;10187983;28;94359;-46
2023/10/23 03:18:44;;;;;;;;;;;17.40;58.50;;;;;;10207265;28;92634;-45
2023/10/23 03:23:46;;;;;;;;;;;17.40;58.40;;;;;;10185317;28;94592;-45
2023/10/23 03:28:48;;;;;;;;;;;17.40;58.80;;;;;;10223785;28;95147;-46
2023/10/23 03:33:51;;;;;;;;;;;17.40;59.20;;;;;;10226911;28;96838;-47
2023/10/23 03:38:54;;;;;;;;;;;17.40;59.60;;;;;;10241221;28;92962;-44
2023/10/23 03:43:56;;;;;;;;;;;17.40;59.10;;;;;;10230719;28;94578;-46
2023/10/23 03:48:57;;;;;;;;;;;17.40;58.90;;;;;;10225280;28;94091;-49
2023/10/23 03:53:59;;;;;;;;;;;17.40;58.60;;;;;;10224126;28;94533;-47
2023/10/23 03:59:02;;;;;;;;;;;17.40;58.40;;;;;;10212432;28;94663;-46
2023/10/23 04:04:04;;;;;;;;;;;17.40;58.20;;;;;;10203251;28;93357;-48
2023/10/23 04:09:06;;;;;;;;;;;17.40;58.00;;;;;;10204452;28;93663;-49
2023/10/23 04:14:08;;;;;;;;;;;17.40;57.90;;;;;;10203045;28;94467;-49
2023/10/23 04:19:10;;;;;;;;;;;17.40;57.70;;;;;;10164345;28;93414;-47
2023/10/23 04:24:12;;;;;;;;;;;17.40;58.20;;;;;;10202012;28;96784;-48
2023/10/23 04:29:14;;;;;;;;;;;17.40;58.70;;;;;;10228996;28;94384;-49
2023/10/23 04:34:16;;;;;;;;;;;17.30;58.80;;;;;;10226614;28;94792;-44
2023/10/23 04:39:18;;;;;;;;;;;17.30;58.50;;;;;;10218103;28;94690;-44
2023/10/23 04:44:20;;;;;;;;;;;17.30;58.30;;;;;;10204587;28;93010;-45
2023/10/23 04:49:22;;;;;;;;;;;17.30;58.10;;;;;;10203203;28;94397;-46
2023/10/23 04:54:24;;;;;;;;;;;17.30;57.90;;;;;;10183957;28;94685;-48
2023/10/23 04:59:26;;;;;;;;;;;17.30;57.70;;;;;;10215781;28;94091;-46
2023/10/23 05:04:29;;;;;;;;;;;17.30;57.60;;;;;;10211988;28;94973;-45
2023/10/23 05:09:31;;;;;;;;;;;17.30;57.40;;;;;;10213466;28;95092;-46
2023/10/23 05:14:33;;;;;;;;;;;17.30;57.50;;;;;;10224117;28;97019;-47
2023/10/23 05:19:35;;;;;;;;;;;17.30;57.80;;;;;;10208669;28;93492;-44
2023/10/23 05:24:37;;;;;;;;;;;17.30;58.00;;;;;;10212809;28;94417;-44
2023/10/23 05:29:39;;;;;;;;;;;17.30;58.70;;;;;;10226620;28;94617;-46
2023/10/23 05:34:43;;;;;;;;;;;17.30;58.80;;;;;;10228323;28;94650;-48
2023/10/23 05:39:45;;;;;;;;;;;17.30;58.50;;;;;;10210171;28;93475;-43
2023/10/23 05:44:47;;;;;;;;;;;17.30;58.30;;;;;;10235777;28;94286;-46
2023/10/23 05:49:49;;;;;;;;;;;17.30;58.20;;;;;;10224065;28;93621;-45
2023/10/23 05:54:50;;;;;;;;;;;17.30;58.00;;;;;;10210524;28;93415;-48
2023/10/23 05:59:52;;;;;;;;;;;17.30;57.90;;;;;;10198978;28;94694;-49
2023/10/23 06:04:54;;;;;;;;;;;17.30;57.80;;;;;;10197815;28;96913;-44
2023/10/23 06:09:58;;;;;;;;;;;17.30;57.70;;;;;;10200757;28;93863;-46
2023/10/23 06:15:00;;;;;;;;;;;17.40;57.90;;;;;;10187071;28;93075;-47
2023/10/23 06:20:02;;;;;;;;;;;17.30;58.50;;;;;;10183706;28;94000;-44
2023/10/23 06:25:04;;;;;;;;;;;17.30;58.80;;;;;;10194809;28;94545;-46
2023/10/23 06:30:07;;;;;;;;;;;17.30;58.80;;;;;;10217108;28;93389;-50
2023/10/23 06:35:09;;;;;;;;;;;17.30;58.50;;;;;;10210085;28;94459;-45
2023/10/23 06:40:10;;;;;;;;;;;17.30;58.40;;;;;;10200149;28;93242;-48
2023/10/23 06:45:12;;;;;;;;;;;17.30;58.20;;;;;;10198739;28;94641;-44
2023/10/23 06:50:15;;;;;;;;;;;17.30;58.10;;;;;;10207404;28;94701;-46
2023/10/23 06:55:18;;;;;;;;;;;17.30;58.00;;;;;;10215049;28;95808;-48
2023/10/23 07:00:20;;;;;;;;;;;17.30;57.90;;;;;;10235905;28;94405;-48
2023/10/23 07:05:22;;;;;;;;;;;17.30;57.80;;;;;;10235198;28;94853;-46
2023/10/23 07:10:24;;;;;;;;;;;17.30;57.90;;;;;;10217840;28;95175;-47
2023/10/23 07:15:26;;;;;;;;;;;17.20;58.60;;;;;;10206646;28;94753;-46
2023/10/23 07:20:28;;;;;;;;;;;17.20;59.20;;;;;;10205925;28;94431;-48
2023/10/23 07:25:30;;;;;;;;;;;17.30;60.40;;;;;;10199538;28;94428;-48
2023/10/23 07:30:32;;;;;;;;;;;17.30;61.00;;;;;;10204151;28;92742;-51
2023/10/23 07:35:34;;;;;;;;;;;17.30;61.30;;;;;;10195632;28;94474;-43
2023/10/23 07:40:53;;;;;;;;;;;17.30;61.60;;;;;;10204123;28;94666;-43
2023/10/23 07:45:55;;;;;;;;;;;17.30;61.10;;;;;;10226575;28;97057;-44
2023/10/23 07:51:15;;;;;;;;;;;17.30;61.20;;;;;;10234471;28;96479;-45
2023/10/23 07:56:17;;;;;;;;;;;17.30;61.20;;;;;;10198876;28;94002;-42
2023/10/23 08:01:19;;;;;;;;;;;17.30;61.10;;;;;;10197046;28;94661;-47
2023/10/23 08:06:21;;;;;;;;;;;17.20;61.00;;;;;;10198112;28;94997;-48
2023/10/23 08:11:23;;;;;;;;;;;17.20;61.00;;;;;;10199781;28;95269;-47
2023/10/23 08:16:25;;;;;;;;;;;17.20;61.10;;;;;;10189468;28;93821;-45
2023/10/23 08:21:28;;;;;;;;;;;17.20;61.10;;;;;;10206680;28;93946;-46
2023/10/23 08:26:30;;;;;;;;;;;17.20;61.10;;;;;;10200873;28;94540;-44
2023/10/23 08:31:32;;;;;;;;;;;17.20;61.10;;;;;;10218401;28;94725;-47
2023/10/23 08:36:41;;;;;;;;;;;17.30;61.20;;;;;;10205704;28;96843;-43
2023/10/23 08:41:43;;;;;;;;;;;17.20;61.20;;;;;;10195064;28;93021;-46
2023/10/23 08:46:45;;;;;;;;;;;17.30;61.40;;;;;;10189258;28;94423;-46
2023/10/23 08:51:49;;;;;;;;;;;17.20;61.30;;;;;;10197479;28;93916;-46
2023/10/23 08:56:58;;;;;;;;;;;17.30;61.40;;;;;;10190426;28;94392;-45
2023/10/23 09:02:00;;;;;;;;;;;17.30;61.60;;;;;;10196294;28;93479;-52
2023/10/23 09:07:03;;;;;;;;;;;17.30;61.80;;;;;;10187252;28;94614;-50
2023/10/23 09:12:05;;;;;;;;;;;17.30;61.70;;;;;;10182562;28;93806;-51
2023/10/23 09:17:07;;;;;;;;;;;17.30;61.60;;;;;;10204574;28;93821;-47
2023/10/23 09:22:12;;;;;;;;;;;17.40;61.70;;;;;;10179831;28;94556;-51
2023/10/23 09:27:15;;;;;;;;;;;17.40;61.80;;;;;;10193967;28;97298;-50
2023/10/23 09:32:17;;;;;;;;;;;17.40;61.70;;;;;;10187988;28;93708;-50
2023/10/23 09:37:19;;;;;;;;;;;17.40;61.80;;;;;;10205837;28;94349;-47
2023/10/23 09:42:30;;;;;;;;;;;17.40;61.80;;;;;;10186582;28;95016;-49
2023/10/23 09:47:35;;;;;;;;;;;17.40;62.90;;;;;;10203663;28;94475;-48
2023/10/23 09:52:37;;;;;;;;;;;17.40;62.20;;;;;;10206030;28;93675;-51
2023/10/23 09:57:39;;;;;;;;;;;17.40;62.30;;;;;;10203639;28;94936;-48
2023/10/23 10:02:47;;;;;;;;;;;17.30;62.40;;;;;;10204728;28;92682;-50
2023/10/23 10:08:02;;;;;;;;;;;17.30;62.40;;;;;;10192139;28;94585;-46
2023/10/23 10:13:04;;;;;;;;;;;17.30;62.50;;;;;;10225557;28;94720;-50
2023/10/23 10:18:06;;;;;;;;;;;17.30;62.50;;;;;;10190354;28;97653;-48
2023/10/23 10:23:11;;;;;;;;;;;17.20;62.50;;;;;;10170870;28;94552;-51
2023/10/23 10:28:14;;;;;;;;;;;17.20;62.70;;;;;;10197477;28;93782;-49
2023/10/23 10:33:19;;;;;;;;;;;17.20;62.70;;;;;;10182321;28;93651;-49
2023/10/23 10:38:40;;;;;;;;;;;17.20;62.80;;;;;;10206142;28;95726;-48
2023/10/23 10:43:43;;;;;;;;;;;17.20;62.90;;;;;;10218944;28;94063;-50
2023/10/23 10:48:45;;;;;;;;;;;17.20;62.90;;;;;;10228740;28;94497;-50
2023/10/23 10:53:48;;;;;;;;;;;17.20;63.10;;;;;;10209877;28;93742;-49
2023/10/23 10:58:50;;;;;;;;;;;17.10;63.10;;;;;;10227910;28;94549;-50
2023/10/23 11:03:52;;;;;;;;;;;17.10;63.30;;;;;;10199441;28;94804;-52
2023/10/23 11:08:58;;;;;;;;;;;17.10;63.20;;;;;;10205732;28;96955;-51
2023/10/23 11:14:01;;;;;;;;;;;17.10;63.20;;;;;;10191551;28;94644;-50
2023/10/23 11:19:05;;;;;;;;;;;17.10;63.20;;;;;;10159161;28;93355;-51
2023/10/23 11:24:07;;;;;;;;;;;17.10;63.30;;;;;;10156143;28;94565;-47
2023/10/23 11:29:09;;;;;;;;;;;17.10;63.40;;;;;;10202977;28;93165;-50
2023/10/23 11:34:11;;;;;;;;;;;17.10;63.40;;;;;;10233813;28;94277;-49
2023/10/23 11:39:17;;;;;;;;;;;17.10;63.40;;;;;;10201840;28;93327;-50
2023/10/23 11:44:19;;;;;;;;;;;17.10;63.40;;;;;;10236020;28;92829;-46
2023/10/23 11:49:24;;;;;;;;;;;17.10;63.40;;;;;;10209379;28;94443;-47
2023/10/23 11:54:26;;;;;;;;;;;17.10;63.40;;;;;;10234833;28;93943;-47
2023/10/23 11:59:28;;;;;;;;;;;17.10;63.50;;;;;;10214261;28;95700;-49
2023/10/23 12:04:35;;;;;;;;;;;17.10;63.50;;;;;;10210639;28;93459;-46
2023/10/23 12:09:37;;;;;;;;;;;17.10;63.40;;;;;;10240114;28;94522;-47
2023/10/23 12:14:39;;;;;;;;;;;17.10;63.40;;;;;;10210376;28;94447;-49
2023/10/23 12:19:42;;;;;;;;;;;17.10;63.40;;;;;;10211183;28;94618;-51
2023/10/23 12:24:43;;;;;;;;;;;17.10;63.30;;;;;;10206477;28;93378;-51
2023/10/23 12:29:46;;;;;;;;;;;17.10;63.40;;;;;;10207212;28;95154;-51
2023/10/23 12:34:48;;;;;;;;;;;17.10;63.40;;;;;;10186041;28;93729;-50
2023/10/23 12:39:50;;;;;;;;;;;17.10;63.30;;;;;;10202269;28;94567;-48
2023/10/23 12:44:52;;;;;;;;;;;17.20;63.50;;;;;;10200008;28;94499;-48
2023/10/23 12:49:54;;;;;;;;;;;17.10;63.50;;;;;;10213798;28;96957;-50
2023/10/23 12:54:56;;;;;;;;;;;17.10;63.50;;;;;;10218607;28;94436;-50
2023/10/23 12:59:58;;;;;;;;;;;17.10;63.50;;;;;;10219163;28;94530;-51
2023/10/23 13:05:02;;;;;;;;;;;17.10;63.60;;;;;;10221652;28;94477;-50
2023/10/23 13:10:04;;;;;;;;;;;17.20;63.70;;;;;;10205733;28;93425;-50
2023/10/23 13:15:06;;;;;;;;;;;17.10;63.60;;;;;;10201538;28;93405;-51
2023/10/23 13:20:10;;;;;;;;;;;17.10;63.60;;;;;;10199125;28;94619;-52
2023/10/23 13:25:34;;;;;;;;;;;17.10;63.70;;;;;;10201136;28;95886;-52
2023/10/23 13:30:37;;;;;;;;;;;17.10;63.60;;;;;;10220925;28;93467;-47
2023/10/23 13:35:39;;;;;;;;;;;17.10;63.70;;;;;;10197761;28;93444;-49
2023/10/23 13:40:41;;;;;;;;;;;17.10;63.70;;;;;;10222832;28;95920;-46
2023/10/23 13:45:43;;;;;;;;;;;17.10;63.80;;;;;;10200825;28;94446;-47
2023/10/23 13:50:49;;;;;;;;;;;17.10;63.80;;;;;;10218313;28;92955;-51
2023/10/23 13:55:51;;;;;;;;;;;17.10;63.80;;;;;;10221649;28;93462;-49
2023/10/23 14:00:53;;;;;;;;;;;17.10;63.80;;;;;;10223804;28;94982;-49
2023/10/23 14:05:56;;;;;;;;;;;17.10;63.90;;;;;;10229789;28;94561;-49
2023/10/23 14:10:58;;;;;;;;;;;17.10;64.00;;;;;;10211102;28;94812;-49
2023/10/23 14:16:20;;;;;;;;;;;17.10;64.00;;;;;;10225712;28;96385;-48
2023/10/23 14:21:22;;;;;;;;;;;17.10;64.00;;;;;;10201692;28;94117;-48
2023/10/23 14:26:23;;;;;;;;;;;17.10;64.00;;;;;;10215949;28;94351;-50
2023/10/23 14:31:25;;;;;;;;;;;17.00;64.10;;;;;;10191539;28;95871;-51
2023/10/23 14:36:27;;;;;;;;;;;17.00;64.10;;;;;;10182905;28;93527;-47
2023/10/23 14:41:29;;;;;;;;;;;17.00;64.10;;;;;;10200503;28;95954;-50
2023/10/23 14:46:31;;;;;;;;;;;17.00;64.10;;;;;;10222937;28;93636;-47
2023/10/23 14:51:36;;;;;;;;;;;17.00;64.20;;;;;;10212519;28;94142;-48
2023/10/23 14:56:38;;;;;;;;;;;17.00;64.30;;;;;;10235545;28;93434;-51
2023/10/23 15:01:40;;;;;;;;;;;17.00;64.30;;;;;;10224180;28;94739;-50
2023/10/23 15:06:42;;;;;;;;;;;17.00;64.30;;;;;;10234434;28;93823;-50
2023/10/23 15:11:44;;;;;;;;;;;17.00;64.30;;;;;;10224828;28;93447;-47
2023/10/23 15:16:46;;;;;;;;;;;16.90;64.40;;;;;;10208651;28;94250;-51
2023/10/23 15:21:51;;;;;;;;;;;16.90;64.40;;;;;;10176007;28;95792;-50
2023/10/23 15:26:53;;;;;;;;;;;17.00;64.50;;;;;;10185287;28;93917;-50
2023/10/23 15:31:54;;;;;;;;;;;16.90;64.40;;;;;;10214909;28;94888;-51
2023/10/23 15:36:57;;;;;;;;;;;16.90;64.50;;;;;;10210746;28;94542;-50
2023/10/23 15:41:59;;;;;;;;;;;16.90;64.50;;;;;;10196302;28;94584;-48
2023/10/23 15:47:01;;;;;;;;;;;16.90;64.50;;;;;;10216535;28;94764;-49
2023/10/23 15:52:03;;;;;;;;;;;16.90;64.50;;;;;;10204510;28;93475;-48
2023/10/23 15:57:06;;;;;;;;;;;16.90;64.50;;;;;;10203701;28;92877;-50
2023/10/23 16:02:10;;;;;;;;;;;16.90;64.50;;;;;;10204561;28;94424;-51
2023/10/23 16:07:12;;;;;;;;;;;16.90;64.50;;;;;;10186425;28;94162;-49
2023/10/23 16:12:14;;;;;;;;;;;16.90;64.40;;;;;;10201834;28;97024;-46
2023/10/23 16:17:16;;;;;;;;;;;16.90;64.10;;;;;;10188392;28;93330;-46
2023/10/23 16:22:19;;;;;;;;;;;17.00;63.70;;;;;;10189427;28;94549;-50
2023/10/23 16:27:21;;;;;;;;;;;17.10;63.30;;;;;;10201708;28;94663;-50
2023/10/23 16:32:23;;;;;;;;;;;17.30;62.90;;;;;;10204556;28;94598;-50
2023/10/23 16:37:26;;;;;;;;;;;17.40;62.30;;;;;;10203069;28;94978;-48
2023/10/23 16:42:28;;;;;;;;;;;17.50;61.90;;;;;;10203360;28;94645;-51
2023/10/23 16:47:30;;;;;;;;;;;17.50;61.60;;;;;;10203848;28;92678;-46
2023/10/23 16:52:34;;;;;;;;;;;17.50;61.10;;;;;;10202804;28;93546;-48
2023/10/23 16:57:36;;;;;;;;;;;17.60;60.90;;;;;;10213566;28;94715;-49
2023/10/23 17:02:39;;;;;;;;;;;17.50;60.60;;;;;;10195156;28;97247;-48
2023/10/23 17:07:41;;;;;;;;;;;17.50;60.70;;;;;;10238622;28;94404;-52
2023/10/23 17:12:43;;;;;;;;;;;17.50;61.10;;;;;;10223783;28;93108;-51
2023/10/23 17:17:45;;;;;;;;;;;17.50;61.20;;;;;;10229140;28;94310;-52
2023/10/23 17:22:47;;;;;;;;;;;17.50;61.10;;;;;;10194689;28;93472;-50
2023/10/23 17:27:49;;;;;;;;;;;17.50;60.80;;;;;;10215205;28;93988;-50
2023/10/23 17:32:52;;;;;;;;;;;17.50;60.50;;;;;;10224421;28;93399;-51
2023/10/23 17:37:54;;;;;;;;;;;17.40;60.20;;;;;;10216841;28;93295;-51
2023/10/23 17:42:57;;;;;;;;;;;17.40;60.10;;;;;;10208775;28;94455;-48
2023/10/23 17:47:59;;;;;;;;;;;17.50;60.10;;;;;;10232338;28;93918;-51
2023/10/23 17:53:02;;;;;;;;;;;17.50;59.80;;;;;;10229529;28;96728;-51
2023/10/23 17:58:03;;;;;;;;;;;17.50;59.60;;;;;;10218365;28;93452;-52
2023/10/23 18:03:05;;;;;;;;;;;17.50;59.40;;;;;;10209979;28;94626;-49
2023/10/23 18:08:07;;;;;;;;;;;17.50;59.30;;;;;;10229077;28;94652;-46
2023/10/23 18:13:09;;;;;;;;;;;17.50;59.20;;;;;;10226864;28;94963;-50
2023/10/23 18:18:11;;;;;;;;;;;17.50;59.30;;;;;;10205682;28;94619;-46
2023/10/23 18:23:13;;;;;;;;;;;17.50;60.00;;;;;;10199898;28;94557;-46
2023/10/23 18:28:15;;;;;;;;;;;17.50;60.20;;;;;;10193920;28;93860;-46
2023/10/23 18:33:17;;;;;;;;;;;17.50;60.00;;;;;;10198163;28;96123;-52
2023/10/23 18:38:19;;;;;;;;;;;17.50;59.90;;;;;;10182122;28;94723;-50
2023/10/23 18:43:23;;;;;;;;;;;17.50;60.00;;;;;;10185223;28;96414;-51
2023/10/23 18:48:24;;;;;;;;;;;17.50;60.30;;;;;;10200910;28;94535;-48
2023/10/23 18:53:27;;;;;;;;;;;17.50;60.50;;;;;;10210252;28;93641;-49
2023/10/23 18:58:29;;;;;;;;;;;17.50;60.80;;;;;;10207413;28;94571;-49
2023/10/23 19:03:31;;;;;;;;;;;17.50;61.00;;;;;;10205212;28;94429;-48
2023/10/23 19:08:32;;;;;;;;;;;17.50;61.20;;;;;;10191739;28;93675;-47
2023/10/23 19:13:35;;;;;;;;;;;17.50;61.50;;;;;;10189275;28;94522;-49
2023/10/23 19:18:37;;;;;;;;;;;17.50;61.70;;;;;;10195022;28;94079;-49
2023/10/23 19:23:41;;;;;;;;;;;17.50;61.90;;;;;;10220558;28;94595;-48
2023/10/23 19:28:42;;;;;;;;;;;17.40;62.00;;;;;;10217879;28;94725;-50
2023/10/23 19:33:45;;;;;;;;;;;17.40;62.20;;;;;;10218305;28;95802;-52
2023/10/23 19:38:48;;;;;;;;;;;17.40;62.30;;;;;;10225142;28;93433;-48
2023/10/23 19:43:50;;;;;;;;;;;17.40;62.50;;;;;;10194304;28;94486;-50
2023/10/23 19:48:52;;;;;;;;;;;17.40;62.50;;;;;;10224114;28;94465;-51
2023/10/23 19:53:54;;;;;;;;;;;17.40;62.60;;;;;;10198228;28;93433;-49
2023/10/23 19:58:56;;;;;;;;;;;17.40;62.80;;;;;;10199099;28;94756;-50
2023/10/23 20:03:58;;;;;;;;;;;17.40;62.90;;;;;;10215913;28;94689;-50
2023/10/23 20:09:00;;;;;;;;;;;17.40;62.90;;;;;;10211492;28;92546;-50
2023/10/23 20:14:01;;;;;;;;;;;17.30;63.00;;;;;;10221378;28;93937;-51
2023/10/23 20:19:05;;;;;;;;;;;17.30;63.00;;;;;;10224719;28;93428;-50
2023/10/23 20:24:11;;;;;;;;;;;17.30;63.10;;;;;;10194612;28;97139;-48
2023/10/23 20:29:12;;;;;;;;;;;17.30;63.10;;;;;;10209178;28;94453;-50
2023/10/23 20:34:14;;;;;;;;;;;17.30;63.20;;;;;;10227886;28;94731;-49
2023/10/23 20:39:17;;;;;;;;;;;17.30;63.20;;;;;;10239668;28;93301;-51
2023/10/23 20:44:18;;;;;;;;;;;17.20;63.30;;;;;;10222540;28;94694;-51
2023/10/23 20:49:20;;;;;;;;;;;17.20;63.30;;;;;;10221835;28;94626;-50
2023/10/23 20:54:22;;;;;;;;;;;17.20;63.30;;;;;;10226852;28;94291;-50
2023/10/23 20:59:24;;;;;;;;;;;17.20;63.50;;;;;;10204677;28;93645;-50
2023/10/23 21:04:26;;;;;;;;;;;17.20;63.50;;;;;;10210589;28;94401;-47
2023/10/23 21:09:28;;;;;;;;;;;17.20;63.50;;;;;;10223685;28;94595;-50
2023/10/23 21:14:30;;;;;;;;;;;17.20;63.50;;;;;;10227814;28;97033;-46
2023/10/23 21:19:32;;;;;;;;;;;17.10;63.50;;;;;;10192865;28;93469;-48
2023/10/23 21:24:34;;;;;;;;;;;17.20;63.50;;;;;;10197866;28;93382;-51
2023/10/23 21:29:36;;;;;;;;;;;17.10;63.50;;;;;;10211246;28;94431;-52
2023/10/23 21:34:38;;;;;;;;;;;17.10;63.50;;;;;;10234829;28;93426;-52
2023/10/23 21:39:40;;;;;;;;;;;17.10;63.50;;;;;;10231755;28;94961;-50
2023/10/23 21:44:42;;;;;;;;;;;17.10;63.60;;;;;;10226020;28;94441;-49
2023/10/23 21:49:44;;;;;;;;;;;17.10;63.60;;;;;;10159871;28;93945;-49
2023/10/23 21:54:46;;;;;;;;;;;17.10;63.60;;;;;;10218027;28;94718;-50
2023/10/23 21:59:48;;;;;;;;;;;17.10;63.60;;;;;;10201197;28;93441;-50
2023/10/23 22:04:50;;;;;;;;;;;17.10;63.60;;;;;;10206943;28;97113;-49
2023/10/23 22:09:52;;;;;;;;;;;17.10;63.70;;;;;;10210972;28;93464;-48
2023/10/23 22:14:54;;;;;;;;;;;17.10;63.60;;;;;;10223616;28;94471;-48
2023/10/23 22:19:56;;;;;;;;;;;17.10;63.60;;;;;;10189636;28;94676;-50
2023/10/23 22:24:58;;;;;;;;;;;17.10;63.60;;;;;;10201433;28;94409;-47
2023/10/23 22:30:06;;;;;;;;;;;17.10;63.60;;;;;;10206608;28;94491;-52
2023/10/23 22:35:23;;;;;;;;;;;17.10;63.60;;;;;;10170476;28;113004;-50
2023/10/23 22:40:25;;;;;;;;;;;17.00;63.60;;;;;;10196926;28;92680;-49
2023/10/23 22:45:28;;;;;;;;;;;17.10;62.80;;;;;;10173666;28;94457;-49
2023/10/23 22:50:31;;;;;;;;;;;17.10;62.30;;;;;;10204346;28;94247;-52
2023/10/23 22:55:33;;;;;;;;;;;17.10;61.80;;;;;;10198691;28;95929;-50
2023/10/23 23:00:35;;;;;;;;;;;17.10;61.50;;;;;;10203932;28;94696;-51
2023/10/23 23:05:39;;;;;;;;;;;17.10;61.20;;;;;;10187449;28;94470;-47
2023/10/23 23:10:41;;;;;;;;;;;17.10;60.90;;;;;;10201178;28;95459;-49
2023/10/23 23:15:45;;;;;;;;;;;17.10;60.50;;;;;;10199801;28;94913;-47
2023/10/23 23:20:49;;;;;;;;;;;17.10;60.30;;;;;;10178883;28;94468;-51
2023/10/23 23:25:51;;;;;;;;;;;17.10;60.60;;;;;;10175666;28;93894;-51
2023/10/23 23:30:53;;;;;;;;;;;17.00;60.80;;;;;;10191628;28;93969;-52
2023/10/23 23:35:57;;;;;;;;;;;17.00;62.10;;;;;;10237485;28;95197;-49
2023/10/23 23:40:59;;;;;;;;;;;17.00;61.00;;;;;;10208324;28;94537;-48
2023/10/23 23:46:01;;;;;;;;;;;17.00;60.60;;;;;;10225464;28;96837;-48
2023/10/23 23:51:03;;;;;;;;;;;17.00;60.30;;;;;;10208454;28;94956;-50
2023/10/23 23:56:05;;;;;;;;;;;17.00;60.00;;;;;;10211480;28;94388;-46
